sensor_id;sensor_type;location;lat;lon;timestamp;temperature;humidity
8872;DHT22;4472;52.092;9.820;2023-05-28T00:01:52;10.00;99.90
8872;DHT22;4472;52.092;9.820;2023-05-28T00:04:40;10.00;99.90
8872;DHT22;4472;52.092;9.820;2023-05-28T00:07:28;10.10;99.90
8872;DHT22;4472;52.092;9.820;2023-05-28T00:10:16;10.10;99.90
8872;DHT22;4472;52.092;9.820;2023-05-28T00:13:03;10.00;99.90
8872;DHT22;4472;52.092;9.820;2023-05-28T00:15:50;10.20;99.90
8872;DHT22;4472;52.092;9.820;2023-05-28T00:18:37;10.00;99.90
8872;DHT22;4472;52.092;9.820;2023-05-28T00:21:26;10.00;99.90
8872;DHT22;4472;52.092;9.820;2023-05-28T00:24:13;10.20;99.90
8872;DHT22;4472;52.092;9.820;2023-05-28T00:27:00;9.90;99.90
8872;DHT22;4472;52.092;9.820;2023-05-28T00:29:51;9.80;99.90
8872;DHT22;4472;52.092;9.820;2023-05-28T00:32:39;9.80;99.90
8872;DHT22;4472;52.092;9.820;2023-05-28T00:35:26;9.70;99.90
8872;DHT22;4472;52.092;9.820;2023-05-28T00:38:14;9.60;99.90
8872;DHT22;4472;52.092;9.820;2023-05-28T00:41:01;9.40;99.90
8872;DHT22;4472;52.092;9.820;2023-05-28T00:43:48;9.60;99.90
8872;DHT22;4472;52.092;9.820;2023-05-28T00:46:36;9.50;99.90
8872;DHT22;4472;52.092;9.820;2023-05-28T00:49:24;9.70;99.90
8872;DHT22;4472;52.092;9.820;2023-05-28T00:52:11;9.70;99.90
8872;DHT22;4472;52.092;9.820;2023-05-28T00:55:00;9.70;99.90
8872;DHT22;4472;52.092;9.820;2023-05-28T00:57:47;9.60;99.90
8872;DHT22;4472;52.092;9.820;2023-05-28T01:00:35;9.50;99.90
8872;DHT22;4472;52.092;9.820;2023-05-28T01:03:23;9.50;99.90
8872;DHT22;4472;52.092;9.820;2023-05-28T01:06:11;9.40;99.90
8872;DHT22;4472;52.092;9.820;2023-05-28T01:08:59;9.30;99.90
8872;DHT22;4472;52.092;9.820;2023-05-28T01:11:48;9.40;99.90
8872;DHT22;4472;52.092;9.820;2023-05-28T01:14:38;9.50;99.90
8872;DHT22;4472;52.092;9.820;2023-05-28T01:17:25;9.30;99.90
8872;DHT22;4472;52.092;9.820;2023-05-28T01:20:13;9.40;99.90
8872;DHT22;4472;52.092;9.820;2023-05-28T01:23:06;9.30;99.90
8872;DHT22;4472;52.092;9.820;2023-05-28T01:25:56;9.40;99.90
8872;DHT22;4472;52.092;9.820;2023-05-28T01:28:45;9.30;99.90
8872;DHT22;4472;52.092;9.820;2023-05-28T01:31:32;9.20;99.90
8872;DHT22;4472;52.092;9.820;2023-05-28T01:34:19;9.20;99.90
8872;DHT22;4472;52.092;9.820;2023-05-28T01:37:08;9.30;99.90
8872;DHT22;4472;52.092;9.820;2023-05-28T01:39:57;9.20;99.90
8872;DHT22;4472;52.092;9.820;2023-05-28T01:42:46;8.70;99.90
8872;DHT22;4472;52.092;9.820;2023-05-28T01:45:34;9.10;99.90
8872;DHT22;4472;52.092;9.820;2023-05-28T01:48:22;9.10;99.90
8872;DHT22;4472;52.092;9.820;2023-05-28T01:51:09;9.00;99.90
8872;DHT22;4472;52.092;9.820;2023-05-28T01:53:56;9.00;99.90
8872;DHT22;4472;52.092;9.820;2023-05-28T01:56:43;9.00;99.90
8872;DHT22;4472;52.092;9.820;2023-05-28T01:59:32;9.00;99.90
8872;DHT22;4472;52.092;9.820;2023-05-28T02:02:19;8.90;99.90
8872;DHT22;4472;52.092;9.820;2023-05-28T02:05:11;9.40;99.90
8872;DHT22;4472;52.092;9.820;2023-05-28T02:07:59;8.70;99.90
8872;DHT22;4472;52.092;9.820;2023-05-28T02:10:46;8.60;99.90
8872;DHT22;4472;52.092;9.820;2023-05-28T02:13:33;8.40;99.90
8872;DHT22;4472;52.092;9.820;2023-05-28T02:16:21;9.40;99.90
8872;DHT22;4472;52.092;9.820;2023-05-28T02:19:10;8.50;99.90
8872;DHT22;4472;52.092;9.820;2023-05-28T02:21:57;8.50;99.90
8872;DHT22;4472;52.092;9.820;2023-05-28T02:24:44;8.40;99.90
8872;DHT22;4472;52.092;9.820;2023-05-28T02:27:32;8.40;99.90
8872;DHT22;4472;52.092;9.820;2023-05-28T02:30:21;8.40;99.90
8872;DHT22;4472;52.092;9.820;2023-05-28T02:33:10;8.40;99.90
8872;DHT22;4472;52.092;9.820;2023-05-28T02:35:57;8.40;99.90
8872;DHT22;4472;52.092;9.820;2023-05-28T02:38:44;8.40;99.90
8872;DHT22;4472;52.092;9.820;2023-05-28T02:41:32;8.40;99.90
8872;DHT22;4472;52.092;9.820;2023-05-28T02:44:19;8.20;99.90
8872;DHT22;4472;52.092;9.820;2023-05-28T02:47:06;8.30;99.90
8872;DHT22;4472;52.092;9.820;2023-05-28T02:49:55;8.20;99.90
8872;DHT22;4472;52.092;9.820;2023-05-28T02:52:42;8.10;99.90
8872;DHT22;4472;52.092;9.820;2023-05-28T02:55:29;7.90;99.90
8872;DHT22;4472;52.092;9.820;2023-05-28T02:58:16;8.00;99.90
8872;DHT22;4472;52.092;9.820;2023-05-28T03:01:04;8.00;99.90
8872;DHT22;4472;52.092;9.820;2023-05-28T03:03:52;8.00;99.90
8872;DHT22;4472;52.092;9.820;2023-05-28T03:06:40;7.90;99.90
8872;DHT22;4472;52.092;9.820;2023-05-28T03:09:28;7.80;99.90
8872;DHT22;4472;52.092;9.820;2023-05-28T03:12:15;7.90;99.90
8872;DHT22;4472;52.092;9.820;2023-05-28T03:15:03;8.00;99.90
8872;DHT22;4472;52.092;9.820;2023-05-28T03:17:50;8.00;99.90
8872;DHT22;4472;52.092;9.820;2023-05-28T03:20:37;7.90;99.90
8872;DHT22;4472;52.092;9.820;2023-05-28T03:23:25;7.90;99.90
8872;DHT22;4472;52.092;9.820;2023-05-28T03:26:13;7.70;99.90
8872;DHT22;4472;52.092;9.820;2023-05-28T03:29:00;7.80;99.90
8872;DHT22;4472;52.092;9.820;2023-05-28T03:31:47;7.80;99.90
8872;DHT22;4472;52.092;9.820;2023-05-28T03:34:34;7.80;99.90
8872;DHT22;4472;52.092;9.820;2023-05-28T03:37:21;7.90;99.90
8872;DHT22;4472;52.092;9.820;2023-05-28T03:40:10;7.90;99.90
8872;DHT22;4472;52.092;9.820;2023-05-28T03:42:58;7.80;99.90
8872;DHT22;4472;52.092;9.820;2023-05-28T03:45:45;7.90;99.90
8872;DHT22;4472;52.092;9.820;2023-05-28T03:48:32;7.90;99.90
8872;DHT22;4472;52.092;9.820;2023-05-28T03:51:19;8.10;99.90
8872;DHT22;4472;52.092;9.820;2023-05-28T03:54:07;8.00;99.90
8872;DHT22;4472;52.092;9.820;2023-05-28T03:56:55;8.00;99.90
8872;DHT22;4472;52.092;9.820;2023-05-28T03:59:43;8.10;99.90
8872;DHT22;4472;52.092;9.820;2023-05-28T04:02:30;8.20;99.90
8872;DHT22;4472;52.092;9.820;2023-05-28T04:05:17;8.20;99.90
8872;DHT22;4472;52.092;9.820;2023-05-28T04:08:04;8.50;99.90
8872;DHT22;4472;52.092;9.820;2023-05-28T04:10:51;8.30;99.90
8872;DHT22;4472;52.092;9.820;2023-05-28T04:13:40;8.30;99.90
8872;DHT22;4472;52.092;9.820;2023-05-28T04:16:27;8.50;99.90
8872;DHT22;4472;52.092;9.820;2023-05-28T04:19:14;8.50;99.90
8872;DHT22;4472;52.092;9.820;2023-05-28T04:22:02;8.50;99.90
8872;DHT22;4472;52.092;9.820;2023-05-28T04:24:49;8.60;99.90
8872;DHT22;4472;52.092;9.820;2023-05-28T04:27:37;9.90;99.90
8872;DHT22;4472;52.092;9.820;2023-05-28T04:30:28;8.90;99.90
8872;DHT22;4472;52.092;9.820;2023-05-28T04:33:17;9.00;99.90
8872;DHT22;4472;52.092;9.820;2023-05-28T04:36:05;8.90;99.90
8872;DHT22;4472;52.092;9.820;2023-05-28T04:38:54;9.10;99.90
8872;DHT22;4472;52.092;9.820;2023-05-28T04:41:42;9.20;99.90
8872;DHT22;4472;52.092;9.820;2023-05-28T04:44:31;9.20;99.90
8872;DHT22;4472;52.092;9.820;2023-05-28T04:47:20;9.30;99.90
8872;DHT22;4472;52.092;9.820;2023-05-28T04:50:09;8.60;99.90
8872;DHT22;4472;52.092;9.820;2023-05-28T04:52:56;9.40;99.90
8872;DHT22;4472;52.092;9.820;2023-05-28T04:55:43;9.50;99.90
8872;DHT22;4472;52.092;9.820;2023-05-28T04:58:31;9.60;99.90
8872;DHT22;4472;52.092;9.820;2023-05-28T05:01:18;9.70;99.90
8872;DHT22;4472;52.092;9.820;2023-05-28T05:04:06;9.80;99.90
8872;DHT22;4472;52.092;9.820;2023-05-28T05:06:54;9.80;99.90
8872;DHT22;4472;52.092;9.820;2023-05-28T05:09:41;9.90;99.90
8872;DHT22;4472;52.092;9.820;2023-05-28T05:12:28;10.00;99.90
8872;DHT22;4472;52.092;9.820;2023-05-28T05:15:16;10.10;99.90
8872;DHT22;4472;52.092;9.820;2023-05-28T05:18:03;10.20;99.90
8872;DHT22;4472;52.092;9.820;2023-05-28T05:20:51;10.30;99.90
8872;DHT22;4472;52.092;9.820;2023-05-28T05:23:40;10.50;99.90
8872;DHT22;4472;52.092;9.820;2023-05-28T05:26:27;10.60;99.90
8872;DHT22;4472;52.092;9.820;2023-05-28T05:29:14;10.80;99.90
8872;DHT22;4472;52.092;9.820;2023-05-28T05:32:01;10.90;99.90
8872;DHT22;4472;52.092;9.820;2023-05-28T05:34:48;11.00;99.90
8872;DHT22;4472;52.092;9.820;2023-05-28T05:37:37;11.10;99.90
8872;DHT22;4472;52.092;9.820;2023-05-28T05:40:24;11.20;99.90
8872;DHT22;4472;52.092;9.820;2023-05-28T05:43:11;11.40;99.90
8872;DHT22;4472;52.092;9.820;2023-05-28T05:45:59;11.50;99.90
8872;DHT22;4472;52.092;9.820;2023-05-28T05:48:46;11.70;99.90
8872;DHT22;4472;52.092;9.820;2023-05-28T05:51:33;11.80;99.90
8872;DHT22;4472;52.092;9.820;2023-05-28T05:54:21;12.00;99.90
8872;DHT22;4472;52.092;9.820;2023-05-28T05:57:08;12.10;99.90
8872;DHT22;4472;52.092;9.820;2023-05-28T05:59:56;12.30;99.90
8872;DHT22;4472;52.092;9.820;2023-05-28T06:02:43;12.40;99.90
8872;DHT22;4472;52.092;9.820;2023-05-28T06:05:30;12.70;99.90
8872;DHT22;4472;52.092;9.820;2023-05-28T06:08:18;12.90;99.90
8872;DHT22;4472;52.092;9.820;2023-05-28T06:11:06;12.90;99.90
8872;DHT22;4472;52.092;9.820;2023-05-28T06:13:54;13.20;99.90
8872;DHT22;4472;52.092;9.820;2023-05-28T06:16:41;13.30;99.90
8872;DHT22;4472;52.092;9.820;2023-05-28T06:19:28;13.30;99.90
8872;DHT22;4472;52.092;9.820;2023-05-28T06:22:16;13.50;99.90
8872;DHT22;4472;52.092;9.820;2023-05-28T06:25:04;13.60;99.90
8872;DHT22;4472;52.092;9.820;2023-05-28T06:27:54;13.60;99.90
8872;DHT22;4472;52.092;9.820;2023-05-28T06:30:41;14.00;99.90
8872;DHT22;4472;52.092;9.820;2023-05-28T06:33:29;13.90;99.90
8872;DHT22;4472;52.092;9.820;2023-05-28T06:36:16;14.00;99.90
8872;DHT22;4472;52.092;9.820;2023-05-28T06:39:04;14.30;99.90
8872;DHT22;4472;52.092;9.820;2023-05-28T06:41:51;14.40;99.90
8872;DHT22;4472;52.092;9.820;2023-05-28T06:44:40;14.50;99.90
8872;DHT22;4472;52.092;9.820;2023-05-28T06:47:27;14.70;99.90
8872;DHT22;4472;52.092;9.820;2023-05-28T06:50:14;14.80;99.90
8872;DHT22;4472;52.092;9.820;2023-05-28T06:53:01;14.40;99.90
8872;DHT22;4472;52.092;9.820;2023-05-28T06:55:48;15.10;99.90
8872;DHT22;4472;52.092;9.820;2023-05-28T06:58:35;15.40;99.90
8872;DHT22;4472;52.092;9.820;2023-05-28T07:01:24;16.50;99.90
8872;DHT22;4472;52.092;9.820;2023-05-28T07:04:11;15.60;99.90
8872;DHT22;4472;52.092;9.820;2023-05-28T07:06:58;15.70;99.90
8872;DHT22;4472;52.092;9.820;2023-05-28T07:09:45;15.80;99.90
8872;DHT22;4472;52.092;9.820;2023-05-28T07:12:32;16.00;99.90
8872;DHT22;4472;52.092;9.820;2023-05-28T07:15:20;16.10;99.90
8872;DHT22;4472;52.092;9.820;2023-05-28T07:18:09;16.30;99.90
8872;DHT22;4472;52.092;9.820;2023-05-28T07:20:56;16.40;99.90
8872;DHT22;4472;52.092;9.820;2023-05-28T07:23:43;16.50;99.90
8872;DHT22;4472;52.092;9.820;2023-05-28T07:26:30;16.50;99.90
8872;DHT22;4472;52.092;9.820;2023-05-28T07:29:17;17.00;99.90
8872;DHT22;4472;52.092;9.820;2023-05-28T07:32:05;16.90;99.90
8872;DHT22;4472;52.092;9.820;2023-05-28T07:34:53;16.90;99.90
8872;DHT22;4472;52.092;9.820;2023-05-28T07:37:40;17.10;99.90
8872;DHT22;4472;52.092;9.820;2023-05-28T07:40:28;17.20;99.90
8872;DHT22;4472;52.092;9.820;2023-05-28T07:43:15;17.40;99.90
8872;DHT22;4472;52.092;9.820;2023-05-28T07:46:02;17.50;99.90
8872;DHT22;4472;52.092;9.820;2023-05-28T07:48:49;17.60;99.90
8872;DHT22;4472;52.092;9.820;2023-05-28T07:51:38;17.80;99.90
8872;DHT22;4472;52.092;9.820;2023-05-28T07:54:25;17.90;99.90
8872;DHT22;4472;52.092;9.820;2023-05-28T07:57:12;18.00;99.90
8872;DHT22;4472;52.092;9.820;2023-05-28T08:00:00;18.10;99.90
8872;DHT22;4472;52.092;9.820;2023-05-28T08:02:52;18.30;99.90
8872;DHT22;4472;52.092;9.820;2023-05-28T08:05:39;18.40;99.90
8872;DHT22;4472;52.092;9.820;2023-05-28T08:08:28;18.50;99.90
8872;DHT22;4472;52.092;9.820;2023-05-28T08:11:15;18.60;99.90
8872;DHT22;4472;52.092;9.820;2023-05-28T08:14:02;18.70;99.90
8872;DHT22;4472;52.092;9.820;2023-05-28T08:16:50;18.80;99.90
8872;DHT22;4472;52.092;9.820;2023-05-28T08:19:37;18.90;99.90
8872;DHT22;4472;52.092;9.820;2023-05-28T08:22:24;18.90;99.90
8872;DHT22;4472;52.092;9.820;2023-05-28T08:25:13;19.00;99.90
8872;DHT22;4472;52.092;9.820;2023-05-28T08:28:00;19.10;99.90
8872;DHT22;4472;52.092;9.820;2023-05-28T08:30:47;19.20;99.90
8872;DHT22;4472;52.092;9.820;2023-05-28T08:33:34;19.30;99.90
8872;DHT22;4472;52.092;9.820;2023-05-28T08:39:09;19.50;97.40
8872;DHT22;4472;52.092;9.820;2023-05-28T08:41:58;19.50;95.30
8872;DHT22;4472;52.092;9.820;2023-05-28T08:44:45;19.50;96.00
8872;DHT22;4472;52.092;9.820;2023-05-28T08:47:33;19.60;96.10
8872;DHT22;4472;52.092;9.820;2023-05-28T08:50:21;19.70;94.40
8872;DHT22;4472;52.092;9.820;2023-05-28T08:53:12;19.70;93.90
8872;DHT22;4472;52.092;9.820;2023-05-28T08:56:00;19.80;95.90
8872;DHT22;4472;52.092;9.820;2023-05-28T08:58:49;19.80;94.30
8872;DHT22;4472;52.092;9.820;2023-05-28T09:01:37;19.90;92.90
8872;DHT22;4472;52.092;9.820;2023-05-28T09:04:25;19.90;91.20
8872;DHT22;4472;52.092;9.820;2023-05-28T09:07:12;19.90;91.50
8872;DHT22;4472;52.092;9.820;2023-05-28T09:09:59;20.00;93.80
8872;DHT22;4472;52.092;9.820;2023-05-28T09:12:59;20.10;94.30
8872;DHT22;4472;52.092;9.820;2023-05-28T09:15:51;20.30;91.00
8872;DHT22;4472;52.092;9.820;2023-05-28T09:18:38;20.30;90.10
8872;DHT22;4472;52.092;9.820;2023-05-28T09:21:25;20.40;83.50
8872;DHT22;4472;52.092;9.820;2023-05-28T09:24:13;20.50;83.20
8872;DHT22;4472;52.092;9.820;2023-05-28T09:27:02;20.50;81.70
8872;DHT22;4472;52.092;9.820;2023-05-28T09:29:51;20.60;83.30
8872;DHT22;4472;52.092;9.820;2023-05-28T09:32:40;20.60;83.10
8872;DHT22;4472;52.092;9.820;2023-05-28T09:35:28;20.70;87.10
8872;DHT22;4472;52.092;9.820;2023-05-28T09:38:15;20.70;91.50
8872;DHT22;4472;52.092;9.820;2023-05-28T09:41:02;20.90;90.90
8872;DHT22;4472;52.092;9.820;2023-05-28T09:43:55;20.90;88.60
8872;DHT22;4472;52.092;9.820;2023-05-28T09:46:46;21.00;83.50
8872;DHT22;4472;52.092;9.820;2023-05-28T09:49:34;21.20;89.80
8872;DHT22;4472;52.092;9.820;2023-05-28T09:52:22;21.20;90.50
8872;DHT22;4472;52.092;9.820;2023-05-28T09:55:13;21.20;85.80
8872;DHT22;4472;52.092;9.820;2023-05-28T09:58:02;21.20;85.90
8872;DHT22;4472;52.092;9.820;2023-05-28T10:00:52;21.30;88.40
8872;DHT22;4472;52.092;9.820;2023-05-28T10:03:43;21.40;90.90
8872;DHT22;4472;52.092;9.820;2023-05-28T10:06:35;21.40;90.80
8872;DHT22;4472;52.092;9.820;2023-05-28T10:09:22;21.50;86.40
8872;DHT22;4472;52.092;9.820;2023-05-28T10:12:16;21.50;85.40
8872;DHT22;4472;52.092;9.820;2023-05-28T10:15:05;21.60;88.50
8872;DHT22;4472;52.092;9.820;2023-05-28T10:17:53;21.60;88.40
8872;DHT22;4472;52.092;9.820;2023-05-28T10:20:41;21.70;83.50
8872;DHT22;4472;52.092;9.820;2023-05-28T10:23:29;21.60;84.60
8872;DHT22;4472;52.092;9.820;2023-05-28T10:26:17;21.60;86.70
8872;DHT22;4472;52.092;9.820;2023-05-28T10:29:06;21.60;85.60
8872;DHT22;4472;52.092;9.820;2023-05-28T10:31:58;21.70;85.70
8872;DHT22;4472;52.092;9.820;2023-05-28T10:34:46;21.70;86.70
8872;DHT22;4472;52.092;9.820;2023-05-28T10:37:35;21.60;83.40
8872;DHT22;4472;52.092;9.820;2023-05-28T10:40:23;21.70;84.50
8872;DHT22;4472;52.092;9.820;2023-05-28T10:43:42;21.70;82.40
8872;DHT22;4472;52.092;9.820;2023-05-28T10:46:35;21.70;88.70
8872;DHT22;4472;52.092;9.820;2023-05-28T10:49:23;21.70;93.20
8872;DHT22;4472;52.092;9.820;2023-05-28T10:52:20;21.60;91.40
8872;DHT22;4472;52.092;9.820;2023-05-28T10:55:09;21.60;87.50
8872;DHT22;4472;52.092;9.820;2023-05-28T10:58:06;21.80;90.00
8872;DHT22;4472;52.092;9.820;2023-05-28T11:01:03;22.00;81.10
8872;DHT22;4472;52.092;9.820;2023-05-28T11:03:53;22.20;92.40
8872;DHT22;4472;52.092;9.820;2023-05-28T11:06:40;22.30;84.30
8872;DHT22;4472;52.092;9.820;2023-05-28T11:09:32;22.40;82.50
8872;DHT22;4472;52.092;9.820;2023-05-28T11:12:20;22.40;83.20
8872;DHT22;4472;52.092;9.820;2023-05-28T11:15:10;22.30;83.20
8872;DHT22;4472;52.092;9.820;2023-05-28T11:17:57;22.60;75.40
8872;DHT22;4472;52.092;9.820;2023-05-28T11:20:45;22.60;76.10
8872;DHT22;4472;52.092;9.820;2023-05-28T11:23:32;22.70;79.90
8872;DHT22;4472;52.092;9.820;2023-05-28T11:26:21;22.90;80.30
8872;DHT22;4472;52.092;9.820;2023-05-28T11:29:09;22.90;78.10
8872;DHT22;4472;52.092;9.820;2023-05-28T11:31:58;23.00;78.50
8872;DHT22;4472;52.092;9.820;2023-05-28T11:34:47;23.00;77.80
8872;DHT22;4472;52.092;9.820;2023-05-28T11:37:35;23.00;80.10
8872;DHT22;4472;52.092;9.820;2023-05-28T11:40:22;23.10;83.80
8872;DHT22;4472;52.092;9.820;2023-05-28T11:43:09;23.20;81.60
8872;DHT22;4472;52.092;9.820;2023-05-28T11:45:58;23.40;83.60
8872;DHT22;4472;52.092;9.820;2023-05-28T11:48:47;23.40;89.40
8872;DHT22;4472;52.092;9.820;2023-05-28T11:54:22;23.40;84.60
8872;DHT22;4472;52.092;9.820;2023-05-28T11:57:09;23.40;82.90
8872;DHT22;4472;52.092;9.820;2023-05-28T12:00:00;23.40;83.70
8872;DHT22;4472;52.092;9.820;2023-05-28T12:02:48;23.30;81.30
8872;DHT22;4472;52.092;9.820;2023-05-28T12:05:37;23.00;85.20
8872;DHT22;4472;52.092;9.820;2023-05-28T12:17:04;22.30;81.70
8872;DHT22;4472;52.092;9.820;2023-05-28T12:19:51;22.30;81.00
8872;DHT22;4472;52.092;9.820;2023-05-28T12:22:40;22.30;83.20
8872;DHT22;4472;52.092;9.820;2023-05-28T12:25:27;22.40;82.20
8872;DHT22;4472;52.092;9.820;2023-05-28T12:28:15;22.40;83.80
8872;DHT22;4472;52.092;9.820;2023-05-28T12:31:02;22.60;86.60
8872;DHT22;4472;52.092;9.820;2023-05-28T12:33:50;22.60;86.20
8872;DHT22;4472;52.092;9.820;2023-05-28T12:36:37;22.70;81.60
8872;DHT22;4472;52.092;9.820;2023-05-28T12:39:25;22.80;83.00
8872;DHT22;4472;52.092;9.820;2023-05-28T12:42:13;22.70;82.50
8872;DHT22;4472;52.092;9.820;2023-05-28T12:45:00;22.60;84.30
8872;DHT22;4472;52.092;9.820;2023-05-28T12:47:48;22.60;82.80
8872;DHT22;4472;52.092;9.820;2023-05-28T12:53:22;22.60;85.10
8872;DHT22;4472;52.092;9.820;2023-05-28T12:56:11;22.60;80.70
8872;DHT22;4472;52.092;9.820;2023-05-28T12:58:59;22.60;87.80
8872;DHT22;4472;52.092;9.820;2023-05-28T13:01:46;22.60;82.00
8872;DHT22;4472;52.092;9.820;2023-05-28T13:04:33;22.60;83.00
8872;DHT22;4472;52.092;9.820;2023-05-28T13:07:21;22.70;83.70
8872;DHT22;4472;52.092;9.820;2023-05-28T13:10:10;22.70;83.50
8872;DHT22;4472;52.092;9.820;2023-05-28T13:12:58;22.80;76.10
8872;DHT22;4472;52.092;9.820;2023-05-28T13:15:45;22.70;79.90
8872;DHT22;4472;52.092;9.820;2023-05-28T13:18:33;22.70;81.30
8872;DHT22;4472;52.092;9.820;2023-05-28T13:21:20;22.70;79.50
8872;DHT22;4472;52.092;9.820;2023-05-28T13:24:07;22.80;81.20
8872;DHT22;4472;52.092;9.820;2023-05-28T13:26:54;22.90;80.50
8872;DHT22;4472;52.092;9.820;2023-05-28T13:29:43;22.90;79.70
8872;DHT22;4472;52.092;9.820;2023-05-28T13:32:30;22.80;77.80
8872;DHT22;4472;52.092;9.820;2023-05-28T13:35:17;22.80;79.80
8872;DHT22;4472;52.092;9.820;2023-05-28T13:38:05;22.80;78.40
8872;DHT22;4472;52.092;9.820;2023-05-28T13:40:53;22.80;77.20
8872;DHT22;4472;52.092;9.820;2023-05-28T13:43:41;22.80;79.10
8872;DHT22;4472;52.092;9.820;2023-05-28T13:46:30;22.90;78.00
8872;DHT22;4472;52.092;9.820;2023-05-28T13:49:17;22.80;77.80
8872;DHT22;4472;52.092;9.820;2023-05-28T13:52:12;22.90;77.40
8872;DHT22;4472;52.092;9.820;2023-05-28T13:54:59;22.80;77.20
8872;DHT22;4472;52.092;9.820;2023-05-28T13:57:46;22.90;77.60
8872;DHT22;4472;52.092;9.820;2023-05-28T14:00:33;23.00;74.80
8872;DHT22;4472;52.092;9.820;2023-05-28T14:03:22;22.90;80.50
8872;DHT22;4472;52.092;9.820;2023-05-28T14:06:09;22.90;78.60
8872;DHT22;4472;52.092;9.820;2023-05-28T14:08:57;23.00;77.50
8872;DHT22;4472;52.092;9.820;2023-05-28T14:11:44;22.90;76.20
8872;DHT22;4472;52.092;9.820;2023-05-28T14:14:32;22.90;72.30
8872;DHT22;4472;52.092;9.820;2023-05-28T14:17:19;22.90;74.10
8872;DHT22;4472;52.092;9.820;2023-05-28T14:20:08;23.00;72.70
8872;DHT22;4472;52.092;9.820;2023-05-28T14:22:56;23.00;74.20
8872;DHT22;4472;52.092;9.820;2023-05-28T14:25:43;22.90;72.60
8872;DHT22;4472;52.092;9.820;2023-05-28T14:28:30;22.90;71.60
8872;DHT22;4472;52.092;9.820;2023-05-28T14:31:17;22.90;70.80
8872;DHT22;4472;52.092;9.820;2023-05-28T14:34:05;22.90;69.80
8872;DHT22;4472;52.092;9.820;2023-05-28T14:36:53;23.00;71.00
8872;DHT22;4472;52.092;9.820;2023-05-28T14:39:40;23.00;72.70
8872;DHT22;4472;52.092;9.820;2023-05-28T14:42:28;23.10;71.00
8872;DHT22;4472;52.092;9.820;2023-05-28T14:45:15;23.10;72.50
8872;DHT22;4472;52.092;9.820;2023-05-28T14:48:03;23.10;71.20
8872;DHT22;4472;52.092;9.820;2023-05-28T14:50:50;23.10;71.10
8872;DHT22;4472;52.092;9.820;2023-05-28T14:53:38;23.10;74.00
8872;DHT22;4472;52.092;9.820;2023-05-28T14:56:25;23.10;73.30
8872;DHT22;4472;52.092;9.820;2023-05-28T14:59:13;23.10;72.80
8872;DHT22;4472;52.092;9.820;2023-05-28T15:02:00;23.10;71.90
8872;DHT22;4472;52.092;9.820;2023-05-28T15:04:47;23.10;73.00
8872;DHT22;4472;52.092;9.820;2023-05-28T15:07:34;23.00;73.10
8872;DHT22;4472;52.092;9.820;2023-05-28T15:13:10;23.00;69.30
8872;DHT22;4472;52.092;9.820;2023-05-28T15:15:57;23.20;70.00
8872;DHT22;4472;52.092;9.820;2023-05-28T15:18:45;23.10;71.10
8872;DHT22;4472;52.092;9.820;2023-05-28T15:21:32;23.10;72.50
8872;DHT22;4472;52.092;9.820;2023-05-28T15:24:19;23.10;71.20
8872;DHT22;4472;52.092;9.820;2023-05-28T15:27:08;23.10;72.20
8872;DHT22;4472;52.092;9.820;2023-05-28T15:29:56;23.20;72.20
8872;DHT22;4472;52.092;9.820;2023-05-28T15:32:44;23.20;71.70
8872;DHT22;4472;52.092;9.820;2023-05-28T15:35:32;23.20;70.50
8872;DHT22;4472;52.092;9.820;2023-05-28T15:38:20;23.10;70.90
8872;DHT22;4472;52.092;9.820;2023-05-28T15:41:08;23.10;72.30
8872;DHT22;4472;52.092;9.820;2023-05-28T15:43:57;23.10;72.00
8872;DHT22;4472;52.092;9.820;2023-05-28T15:46:45;23.20;71.30
8872;DHT22;4472;52.092;9.820;2023-05-28T15:49:32;23.30;71.20
8872;DHT22;4472;52.092;9.820;2023-05-28T15:52:19;23.20;71.90
8872;DHT22;4472;52.092;9.820;2023-05-28T15:55:07;23.20;70.70
8872;DHT22;4472;52.092;9.820;2023-05-28T15:57:54;23.10;70.10
8872;DHT22;4472;52.092;9.820;2023-05-28T16:00:44;23.10;71.10
8872;DHT22;4472;52.092;9.820;2023-05-28T16:03:31;23.10;69.80
8872;DHT22;4472;52.092;9.820;2023-05-28T16:06:19;23.10;70.30
8872;DHT22;4472;52.092;9.820;2023-05-28T16:09:07;23.10;69.40
8872;DHT22;4472;52.092;9.820;2023-05-28T16:11:55;23.10;71.40
8872;DHT22;4472;52.092;9.820;2023-05-28T16:14:43;23.10;69.70
8872;DHT22;4472;52.092;9.820;2023-05-28T16:17:35;23.10;71.10
8872;DHT22;4472;52.092;9.820;2023-05-28T16:20:24;23.00;71.90
8872;DHT22;4472;52.092;9.820;2023-05-28T16:23:12;23.00;71.10
8872;DHT22;4472;52.092;9.820;2023-05-28T16:26:00;23.00;71.00
8872;DHT22;4472;52.092;9.820;2023-05-28T16:28:47;23.00;71.20
8872;DHT22;4472;52.092;9.820;2023-05-28T16:31:36;23.00;71.90
8872;DHT22;4472;52.092;9.820;2023-05-28T16:34:25;23.00;71.80
8872;DHT22;4472;52.092;9.820;2023-05-28T16:37:13;23.00;71.70
8872;DHT22;4472;52.092;9.820;2023-05-28T16:40:01;22.90;72.90
8872;DHT22;4472;52.092;9.820;2023-05-28T16:42:52;22.90;71.60
8872;DHT22;4472;52.092;9.820;2023-05-28T16:45:42;22.90;73.30
8872;DHT22;4472;52.092;9.820;2023-05-28T16:48:30;22.80;74.90
8872;DHT22;4472;52.092;9.820;2023-05-28T16:51:20;22.80;77.90
8872;DHT22;4472;52.092;9.820;2023-05-28T16:54:07;22.80;76.10
8872;DHT22;4472;52.092;9.820;2023-05-28T16:56:57;22.80;76.10
8872;DHT22;4472;52.092;9.820;2023-05-28T16:59:44;22.80;81.00
8872;DHT22;4472;52.092;9.820;2023-05-28T17:02:31;22.70;78.40
8872;DHT22;4472;52.092;9.820;2023-05-28T17:05:19;22.70;76.90
8872;DHT22;4472;52.092;9.820;2023-05-28T17:08:08;22.70;78.50
8872;DHT22;4472;52.092;9.820;2023-05-28T17:10:55;22.60;81.80
8872;DHT22;4472;52.092;9.820;2023-05-28T17:13:42;22.50;79.40
8872;DHT22;4472;52.092;9.820;2023-05-28T17:16:29;22.40;78.20
8872;DHT22;4472;52.092;9.820;2023-05-28T17:19:17;22.30;79.50
8872;DHT22;4472;52.092;9.820;2023-05-28T17:22:04;22.30;78.90
8872;DHT22;4472;52.092;9.820;2023-05-28T17:24:52;22.20;80.90
8872;DHT22;4472;52.092;9.820;2023-05-28T17:27:40;22.20;82.10
8872;DHT22;4472;52.092;9.820;2023-05-28T17:30:27;22.20;78.90
8872;DHT22;4472;52.092;9.820;2023-05-28T17:33:14;22.10;76.90
8872;DHT22;4472;52.092;9.820;2023-05-28T17:36:01;22.10;76.40
8872;DHT22;4472;52.092;9.820;2023-05-28T17:38:48;22.00;77.10
8872;DHT22;4472;52.092;9.820;2023-05-28T17:41:37;22.00;78.90
8872;DHT22;4472;52.092;9.820;2023-05-28T17:44:24;21.90;79.40
8872;DHT22;4472;52.092;9.820;2023-05-28T17:47:11;21.70;76.70
8872;DHT22;4472;52.092;9.820;2023-05-28T17:49:59;21.60;76.00
8872;DHT22;4472;52.092;9.820;2023-05-28T17:52:46;21.50;76.10
8872;DHT22;4472;52.092;9.820;2023-05-28T17:55:34;21.40;77.20
8872;DHT22;4472;52.092;9.820;2023-05-28T17:58:22;21.40;77.00
8872;DHT22;4472;52.092;9.820;2023-05-28T18:01:09;21.30;77.20
8872;DHT22;4472;52.092;9.820;2023-05-28T18:03:57;21.30;77.80
8872;DHT22;4472;52.092;9.820;2023-05-28T18:06:44;21.30;80.10
8872;DHT22;4472;52.092;9.820;2023-05-28T18:09:32;21.00;80.70
8872;DHT22;4472;52.092;9.820;2023-05-28T18:12:19;21.10;81.80
8872;DHT22;4472;52.092;9.820;2023-05-28T18:15:08;21.00;83.00
8872;DHT22;4472;52.092;9.820;2023-05-28T18:17:59;20.90;86.50
8872;DHT22;4472;52.092;9.820;2023-05-28T18:20:47;20.80;85.40
8872;DHT22;4472;52.092;9.820;2023-05-28T18:23:34;20.70;88.00
8872;DHT22;4472;52.092;9.820;2023-05-28T18:26:22;20.60;89.60
8872;DHT22;4472;52.092;9.820;2023-05-28T18:29:09;20.50;90.80
8872;DHT22;4472;52.092;9.820;2023-05-28T18:31:57;20.50;92.10
8872;DHT22;4472;52.092;9.820;2023-05-28T18:34:45;20.50;93.30
8872;DHT22;4472;52.092;9.820;2023-05-28T18:37:32;20.40;94.40
8872;DHT22;4472;52.092;9.820;2023-05-28T18:40:19;20.30;95.30